ADDS METAR Data INFO
IDs: Format: Raw Decoded Include TAF

Data at: 1145 UTC 25 Jun 2018

KDHT 251053Z AUTO 33006KT 10SM BKN080 13/ A3010 RMK AO2 SLP145 T0133 $
KDHT 250953Z AUTO 35007KT 10SM OVC085 14/ A3008 RMK AO2 SLP137 T0139 $
KDHT 250853Z AUTO 35011KT 10SM BKN090 14/ A3006 RMK AO2 SLP131 T0139 58009 $
KDHT 250753Z AUTO 36012KT 10SM SCT100 14/ A3006 RMK AO2 SLP136 T0139 $
KDHT 250653Z AUTO 00000KT 10SM BKN100 14/ A3012 RMK AO2 LTG DSNT E-S TSE0555 SLP160 T0139 $
KDHT 250639Z AUTO 35007KT 10SM SCT007 SCT100 14/ A3009 RMK AO2 LTG DSNT SE AND S TSE0555 T0139 $
KDHT 250558Z AUTO 03010KT 10SM BKN007 OVC055 14/ A3008 RMK AO2 LTG DSNT E-SW TSE55 T0139 $
KDHT 250553Z AUTO 06014KT 10SM TS BKN007 OVC055 14/ A3009 RMK AO2 PK WND 05030/0456 LTG DSNT ALQDS RAE43 TSE25B32 SLP150 P0000 60048 T0139 10267 20139 402720139 53027 $
KDHT 250538Z AUTO 03020G27KT 10SM -TSRA BKN007 BKN050 OVC100 14/ A3005 RMK AO2 PK WND 05030/0456 LTG DSNT ALQDS TSE25B32 P0000 T0139 $
KDHT 250525Z AUTO 05018G28KT 10SM VCTS -RA BKN007 OVC110 14/ A3005 RMK AO2 PK WND 05030/0456 LTG DSNT ALQDS TSE25 P0000 T0139 $
KDHT 250519Z AUTO 04022G28KT 10SM -TSRA BKN007 OVC110 14/ A3004 RMK AO2 PK WND 05030/0456 LTG DSNT ALQDS P0000 T0139 $
KDHT 250510Z AUTO 04023KT 10SM -TSRA SCT007 BKN110 14/ A3003 RMK AO2 PK WND 05030/0456 LTG DSNT ALQDS P0000 T0139 $
KDHT 250453Z AUTO 05026G32KT 9SM -TSRA SCT047 SCT070 OVC110 14/ A3003 RMK AO2 PK WND 02038/0355 LTG DSNT ALQDS RAB05 TSB04 SLP133 P0048 T0139 $
KDHT 250444Z AUTO 04023KT 3SM TSRA BKN042 BKN070 OVC100 14/ A3001 RMK AO2 PK WND 02038/0355 LTG DSNT ALQDS RAB05 TSB04 P0047 T0139 $
KDHT 250420Z AUTO 03019G31KT 1 1/2SM +TSRA SCT021 BKN043 OVC060 14/12 A3005 RMK AO2 PK WND 02038/0355 LTG DSNT ALQDS RAB05 TSB04 P0017 T01440117 $
KDHT 250410Z AUTO 02021G32KT 10SM -TSRA FEW027 BKN038 OVC046 17/11 A3002 RMK AO2 PK WND 02038/0355 LTG DSNT ALQDS RAB05 TSB04 P0000 T01720106
KDHT 250359Z AUTO 01024G42KT 10SM VCTS SCT029 OVC037 16/10 A3001 RMK AO2 PK WND 02038/0355 LTG DSNT W-N T01610100
KDHT 250353Z AUTO 01035G42KT 10SM SCT026 OVC035 17/10 A3001 RMK AO2 PK WND 35043/0343 LTG DSNT W-N SLP121 T01670100
KDHT 250349Z AUTO 02033G43KT 10SM FEW024 BKN029 OVC039 17/10 A3000 RMK AO2 PK WND 35043/0343 LTG DSNT W-N
KDHT 250332Z AUTO 01027G39KT 8SM SQ FEW026 SCT031 BKN046 18/11 A2996 RMK AO2 PK WND 36039/0325 LTG DSNT N AND NW PRESRR T01780106
KDHT 250253Z AUTO 06011KT 10SM SCT043 BKN050 24/18 A2993 RMK AO2 SLP082 T02440178 53015
KDHT 250153Z AUTO 03013KT 10SM OVC038 25/18 A2992 RMK AO2 SLP074 T02500183
KDHT 250053Z AUTO 10010KT 10SM FEW038 26/18 A2987 RMK AO2 SLP058 T02610178
KDHT 242353Z AUTO 10012KT 10SM BKN038 27/17 A2987 RMK AO2 SLP058 T02670172 10272 20183 56015
KDHT 242253Z AUTO 10014KT 10SM OVC033 26/17 A2988 RMK AO2 PK WND 09026/2224 SLP061 T02610167
KDHT 242153Z AUTO 11012KT 10SM FEW032 27/17 A2989 RMK AO2 SLP064 T02670172
KDHT 242129Z AUTO 09013G18KT 10SM SCT032 26/17 A2990 RMK AO2 T02610167
KDHT 242053Z AUTO 10012KT 10SM BKN026 24/16 A2992 RMK AO2 SLP077 T02440161 58020
KDHT 241953Z AUTO 08011KT 10SM OVC021 23/16 A2995 RMK AO2 SLP088 T02280156
KDHT 241924Z AUTO 08014KT 10SM OVC015 22/16 A2996 RMK AO2 T02170156
KDHT 241853Z AUTO 09013KT 10SM OVC012 19/15 A2998 RMK AO2 SLP101 T01940150
KDHT 241753Z AUTO 07015KT 10SM OVC012 18/14 A2999 RMK AO2 SLP106 T01830139 10211 20167 51017
KDHT 241703Z AUTO 07017KT 10SM OVC010 18/14 A2998 RMK AO2 T01780139
KDHT 241653Z AUTO 07017KT 10SM OVC009 17/14 A2998 RMK AO2 PK WND 06028/1600 SLP103 T01720139
KDHT 241553Z AUTO 06022G26KT 10SM OVC006 17/14 A2995 RMK AO2 PK WND 05031/1455 SLP093 T01720144
KDHT 241503Z AUTO 04022G31KT 9SM SCT003 OVC009 17/14 A2995 RMK AO2 PK WND 05031/1455 CIG 005V011 T01670144
KDHT 241453Z AUTO 05020G27KT 4SM BR OVC004 18/16 A2993 RMK AO2 PK WND 04027/1453 SLP086 T01780161 53031
KDHT 241434Z AUTO 04016G21KT 5SM BR OVC004 19/17 A2993 RMK AO2 T01890172
KDHT 241425Z AUTO 04015KT 2SM BR BKN004 OVC009 19/17 A2993 RMK AO2 T01890172
KDHT 241353Z AUTO 36015KT 1SM BR OVC002 20/18 A2990 RMK AO2 SLP066 T02000183
KDHT 241346Z AUTO 35012KT 3/4SM BR OVC004 20/18 A2989 RMK AO2 T02000183
KDHT 241338Z AUTO 34013KT 2SM BR OVC004 20/18 A2988 RMK AO2 CIG 003V008 PRESRR T02000183
KDHT 241325Z AUTO 32009KT 3SM BR OVC005 21/19 A2986 RMK AO2 CIG 003V008 T02110189
KDHT 241253Z AUTO 14006KT 2SM BR OVC003 20/19 A2983 RMK AO2 SLP038 T02000189
KDHT 241241Z AUTO 13008KT 1 3/4SM BR OVC003 20/18 A2983 RMK AO2 T02000183
KDHT 241231Z AUTO 12007KT 2SM BR OVC003 20/18 A2983 RMK AO2 T02000183
KDHT 241200Z AUTO 10008KT 2 1/2SM BR OVC004 20/18 A2983 RMK AO2 T02000183
KDHT 241153Z AUTO 12008KT 3SM BR OVC004 20/18 A2983 RMK AO2 SLP038 T02000183 10211 20194 58001
KDHT 241131Z AUTO 10010KT 3SM BR OVC004 21/19 A2984 RMK AO2 T02060189
KDHT 241108Z AUTO 10009KT 3SM BR OVC003 20/19 A2983 RMK AO2 T02000189
KDHT 241053Z AUTO 10012KT 2 1/2SM BR OVC002 20/19 A2983 RMK AO2 SLP038 T02000189
KDHT 241015Z AUTO 09011KT 2SM BR OVC002 20/19 A2984 RMK AO2 T02000189
KDHT 241007Z AUTO 09011KT 1 3/4SM BR OVC003 20/19 A2984 RMK AO2 T02000189
KDHT 240953Z AUTO 07008KT 2SM BR OVC003 20/19 A2984 RMK AO2 SLP043 T02000189
KDHT 240937Z AUTO 08009KT 2 1/2SM BR BKN004 20/18 A2984 RMK AO2 T02000183
KDHT 240932Z AUTO 07009KT 3SM BR BKN005 20/18 A2984 RMK AO2 T02000183
KDHT 240923Z AUTO 07006KT 3SM BR SCT005 19/18 A2984 RMK AO2 T01940183
KDHT 240853Z AUTO 08005KT 4SM BR CLR 19/18 A2983 RMK AO2 SLP039 T01940178 58011
KDHT 240753Z AUTO 11005KT 5SM BR FEW010 20/18 A2986 RMK AO2 SLP053 T02000183
KDHT 240653Z AUTO 10009KT 6SM BR FEW036 21/18 A2987 RMK AO2 SLP056 T02060183
KDHT 240553Z AUTO 06005KT 9SM CLR 21/17 A2987 RMK AO2 SLP057 T02110172 10300 20211 403060156 53015
KDHT 240453Z AUTO 12009KT 10SM CLR 22/17 A2983 RMK AO2 SLP046 T02170172
KDHT 240353Z AUTO 12010KT 10SM CLR 23/17 A2982 RMK AO2 SLP041 T02280167
KDHT 240253Z AUTO 11008KT 10SM CLR 23/17 A2982 RMK AO2 SLP043 T02330167 53004
KDHT 240153Z AUTO 14009KT 10SM CLR 26/16 A2979 RMK AO2 SLP031 T02610161
KDHT 240053Z AUTO 13014KT 10SM CLR 29/16 A2980 RMK AO2 SLP031 T02890161
KDHT 232353Z AUTO 15014KT 10SM CLR 30/16 A2980 RMK AO2 SLP035 T03000156 10306 20244 58027